sensor_id;sensor_type;location;lat;lon;timestamp;P1;durP1;ratioP1;P2;durP2;ratioP2
48897;SDS011;34713;50.038;20.000;2022-08-01T00:00:36;6.40;;;4.30;;
48897;SDS011;34713;50.038;20.000;2022-08-01T00:03:04;6.37;;;4.08;;
48897;SDS011;34713;50.038;20.000;2022-08-01T00:05:30;7.10;;;4.17;;
48897;SDS011;34713;50.038;20.000;2022-08-01T00:07:56;7.25;;;4.15;;
48897;SDS011;34713;50.038;20.000;2022-08-01T00:10:22;5.30;;;4.00;;
48897;SDS011;34713;50.038;20.000;2022-08-01T00:12:49;7.45;;;4.00;;
48897;SDS011;34713;50.038;20.000;2022-08-01T00:15:15;6.22;;;4.00;;
48897;SDS011;34713;50.038;20.000;2022-08-01T00:17:42;5.58;;;4.40;;
48897;SDS011;34713;50.038;20.000;2022-08-01T00:20:09;6.95;;;4.25;;
48897;SDS011;34713;50.038;20.000;2022-08-01T00:22:37;7.70;;;4.50;;
48897;SDS011;34713;50.038;20.000;2022-08-01T00:25:04;6.67;;;4.53;;
48897;SDS011;34713;50.038;20.000;2022-08-01T00:27:31;5.65;;;4.50;;
48897;SDS011;34713;50.038;20.000;2022-08-01T00:29:57;6.90;;;4.37;;
48897;SDS011;34713;50.038;20.000;2022-08-01T00:32:23;6.40;;;4.03;;
48897;SDS011;34713;50.038;20.000;2022-08-01T00:34:49;5.25;;;4.40;;
48897;SDS011;34713;50.038;20.000;2022-08-01T00:37:15;9.18;;;4.72;;
48897;SDS011;34713;50.038;20.000;2022-08-01T00:39:41;7.85;;;4.50;;
48897;SDS011;34713;50.038;20.000;2022-08-01T00:42:12;5.67;;;4.30;;
48897;SDS011;34713;50.038;20.000;2022-08-01T00:44:37;7.50;;;5.03;;
48897;SDS011;34713;50.038;20.000;2022-08-01T00:47:04;9.08;;;5.15;;
48897;SDS011;34713;50.038;20.000;2022-08-01T00:49:31;6.12;;;4.70;;
48897;SDS011;34713;50.038;20.000;2022-08-01T00:51:57;7.15;;;4.85;;
48897;SDS011;34713;50.038;20.000;2022-08-01T00:54:23;8.05;;;4.80;;
48897;SDS011;34713;50.038;20.000;2022-08-01T00:56:51;6.83;;;5.28;;
48897;SDS011;34713;50.038;20.000;2022-08-01T00:59:18;8.23;;;5.05;;
48897;SDS011;34713;50.038;20.000;2022-08-01T01:01:47;7.60;;;5.15;;
48897;SDS011;34713;50.038;20.000;2022-08-01T01:04:14;8.03;;;5.60;;
48897;SDS011;34713;50.038;20.000;2022-08-01T01:09:44;8.35;;;5.22;;
48897;SDS011;34713;50.038;20.000;2022-08-01T01:18:00;8.23;;;5.83;;
48897;SDS011;34713;50.038;20.000;2022-08-01T01:20:37;9.78;;;5.10;;
48897;SDS011;34713;50.038;20.000;2022-08-01T01:29:06;6.30;;;5.42;;
48897;SDS011;34713;50.038;20.000;2022-08-01T01:31:51;7.40;;;5.33;;
48897;SDS011;34713;50.038;20.000;2022-08-01T01:34:22;7.78;;;5.00;;
48897;SDS011;34713;50.038;20.000;2022-08-01T01:36:50;7.62;;;5.05;;
48897;SDS011;34713;50.038;20.000;2022-08-01T01:39:18;8.95;;;5.15;;
48897;SDS011;34713;50.038;20.000;2022-08-01T01:41:46;9.05;;;4.90;;
48897;SDS011;34713;50.038;20.000;2022-08-01T01:44:15;6.17;;;4.47;;
48897;SDS011;34713;50.038;20.000;2022-08-01T01:46:42;6.30;;;4.50;;
48897;SDS011;34713;50.038;20.000;2022-08-01T01:49:09;6.25;;;4.33;;
48897;SDS011;34713;50.038;20.000;2022-08-01T01:51:36;5.40;;;4.10;;
48897;SDS011;34713;50.038;20.000;2022-08-01T01:54:04;9.40;;;5.15;;
48897;SDS011;34713;50.038;20.000;2022-08-01T01:56:32;7.65;;;4.28;;
48897;SDS011;34713;50.038;20.000;2022-08-01T01:59:00;8.40;;;4.17;;
48897;SDS011;34713;50.038;20.000;2022-08-01T02:01:29;5.90;;;4.35;;
48897;SDS011;34713;50.038;20.000;2022-08-01T02:03:57;9.28;;;4.40;;
48897;SDS011;34713;50.038;20.000;2022-08-01T02:06:25;7.20;;;4.55;;
48897;SDS011;34713;50.038;20.000;2022-08-01T02:08:53;8.08;;;4.67;;
48897;SDS011;34713;50.038;20.000;2022-08-01T02:11:20;5.95;;;4.20;;
48897;SDS011;34713;50.038;20.000;2022-08-01T02:13:54;5.85;;;4.17;;
48897;SDS011;34713;50.038;20.000;2022-08-01T02:16:27;5.47;;;4.25;;
48897;SDS011;34713;50.038;20.000;2022-08-01T02:18:56;5.58;;;4.40;;
48897;SDS011;34713;50.038;20.000;2022-08-01T02:21:25;6.62;;;5.17;;
48897;SDS011;34713;50.038;20.000;2022-08-01T02:23:54;7.28;;;4.67;;
48897;SDS011;34713;50.038;20.000;2022-08-01T02:26:34;7.78;;;4.67;;
48897;SDS011;34713;50.038;20.000;2022-08-01T02:29:05;6.90;;;5.03;;
48897;SDS011;34713;50.038;20.000;2022-08-01T02:31:35;9.58;;;5.50;;
48897;SDS011;34713;50.038;20.000;2022-08-01T02:34:06;7.53;;;5.58;;
48897;SDS011;34713;50.038;20.000;2022-08-01T02:36:34;7.40;;;5.17;;
48897;SDS011;34713;50.038;20.000;2022-08-01T02:39:03;8.45;;;5.42;;
48897;SDS011;34713;50.038;20.000;2022-08-01T02:44:06;10.03;;;5.97;;
48897;SDS011;34713;50.038;20.000;2022-08-01T02:46:38;7.90;;;5.80;;
48897;SDS011;34713;50.038;20.000;2022-08-01T02:49:10;9.23;;;6.40;;
48897;SDS011;34713;50.038;20.000;2022-08-01T02:51:38;10.13;;;7.12;;
48897;SDS011;34713;50.038;20.000;2022-08-01T02:54:07;8.85;;;7.17;;
48897;SDS011;34713;50.038;20.000;2022-08-01T02:56:35;9.65;;;7.53;;
48897;SDS011;34713;50.038;20.000;2022-08-01T02:59:07;12.03;;;7.95;;
48897;SDS011;34713;50.038;20.000;2022-08-01T03:01:36;12.47;;;7.67;;
48897;SDS011;34713;50.038;20.000;2022-08-01T03:04:04;10.23;;;8.05;;
48897;SDS011;34713;50.038;20.000;2022-08-01T03:06:31;13.18;;;8.08;;
48897;SDS011;34713;50.038;20.000;2022-08-01T03:09:00;15.43;;;8.65;;
48897;SDS011;34713;50.038;20.000;2022-08-01T03:11:28;13.28;;;9.45;;
48897;SDS011;34713;50.038;20.000;2022-08-01T03:13:56;14.13;;;8.78;;
48897;SDS011;34713;50.038;20.000;2022-08-01T03:16:30;13.48;;;9.58;;
48897;SDS011;34713;50.038;20.000;2022-08-01T03:18:58;12.93;;;10.13;;
48897;SDS011;34713;50.038;20.000;2022-08-01T03:21:27;15.75;;;9.88;;
48897;SDS011;34713;50.038;20.000;2022-08-01T03:23:55;11.78;;;9.40;;
48897;SDS011;34713;50.038;20.000;2022-08-01T03:26:27;16.60;;;9.73;;
48897;SDS011;34713;50.038;20.000;2022-08-01T03:28:57;11.73;;;9.00;;
48897;SDS011;34713;50.038;20.000;2022-08-01T03:31:27;11.88;;;9.33;;
48897;SDS011;34713;50.038;20.000;2022-08-01T03:33:54;14.33;;;9.15;;
48897;SDS011;34713;50.038;20.000;2022-08-01T03:36:25;10.80;;;8.93;;
48897;SDS011;34713;50.038;20.000;2022-08-01T03:38:52;11.70;;;9.08;;
48897;SDS011;34713;50.038;20.000;2022-08-01T03:41:21;10.50;;;8.48;;
48897;SDS011;34713;50.038;20.000;2022-08-01T03:44:00;12.07;;;7.95;;
48897;SDS011;34713;50.038;20.000;2022-08-01T03:46:30;13.70;;;8.00;;
48897;SDS011;34713;50.038;20.000;2022-08-01T03:49:20;13.62;;;7.87;;
48897;SDS011;34713;50.038;20.000;2022-08-01T03:51:49;10.13;;;7.30;;
48897;SDS011;34713;50.038;20.000;2022-08-01T03:54:24;10.70;;;7.30;;
48897;SDS011;34713;50.038;20.000;2022-08-01T03:56:51;8.43;;;6.75;;
48897;SDS011;34713;50.038;20.000;2022-08-01T03:59:18;11.55;;;7.05;;
48897;SDS011;34713;50.038;20.000;2022-08-01T04:01:45;11.57;;;6.45;;
48897;SDS011;34713;50.038;20.000;2022-08-01T04:04:11;12.68;;;7.10;;
48897;SDS011;34713;50.038;20.000;2022-08-01T04:06:38;8.95;;;6.87;;
48897;SDS011;34713;50.038;20.000;2022-08-01T04:09:08;8.40;;;6.75;;
48897;SDS011;34713;50.038;20.000;2022-08-01T04:11:36;10.23;;;6.60;;
48897;SDS011;34713;50.038;20.000;2022-08-01T04:14:02;9.45;;;6.95;;
48897;SDS011;34713;50.038;20.000;2022-08-01T04:16:28;11.38;;;6.20;;
48897;SDS011;34713;50.038;20.000;2022-08-01T04:18:54;10.60;;;6.22;;
48897;SDS011;34713;50.038;20.000;2022-08-01T04:21:22;8.18;;;6.30;;
48897;SDS011;34713;50.038;20.000;2022-08-01T04:23:52;8.50;;;6.05;;
48897;SDS011;34713;50.038;20.000;2022-08-01T04:26:19;8.08;;;5.78;;
48897;SDS011;34713;50.038;20.000;2022-08-01T04:28:46;10.40;;;5.85;;
48897;SDS011;34713;50.038;20.000;2022-08-01T04:31:15;9.80;;;6.80;;
48897;SDS011;34713;50.038;20.000;2022-08-01T04:33:43;8.75;;;7.17;;
48897;SDS011;34713;50.038;20.000;2022-08-01T04:36:14;11.08;;;7.62;;
48897;SDS011;34713;50.038;20.000;2022-08-01T04:38:42;8.83;;;7.87;;
48897;SDS011;34713;50.038;20.000;2022-08-01T04:41:12;9.45;;;7.05;;
48897;SDS011;34713;50.038;20.000;2022-08-01T04:43:40;9.90;;;7.75;;
48897;SDS011;34713;50.038;20.000;2022-08-01T04:46:06;9.35;;;7.45;;
48897;SDS011;34713;50.038;20.000;2022-08-01T04:48:36;10.15;;;9.10;;
48897;SDS011;34713;50.038;20.000;2022-08-01T04:51:03;10.03;;;8.60;;
48897;SDS011;34713;50.038;20.000;2022-08-01T04:53:32;11.05;;;9.78;;
48897;SDS011;34713;50.038;20.000;2022-08-01T04:55:57;12.50;;;9.75;;
48897;SDS011;34713;50.038;20.000;2022-08-01T04:58:23;14.43;;;9.75;;
48897;SDS011;34713;50.038;20.000;2022-08-01T05:00:49;12.13;;;9.70;;
48897;SDS011;34713;50.038;20.000;2022-08-01T05:03:15;13.10;;;10.48;;
48897;SDS011;34713;50.038;20.000;2022-08-01T05:05:41;11.55;;;10.30;;
48897;SDS011;34713;50.038;20.000;2022-08-01T05:08:06;14.53;;;9.83;;
48897;SDS011;34713;50.038;20.000;2022-08-01T05:10:32;12.03;;;9.85;;
48897;SDS011;34713;50.038;20.000;2022-08-01T05:12:58;10.65;;;9.58;;
48897;SDS011;34713;50.038;20.000;2022-08-01T05:15:24;10.25;;;9.15;;
48897;SDS011;34713;50.038;20.000;2022-08-01T05:17:50;9.93;;;8.93;;
48897;SDS011;34713;50.038;20.000;2022-08-01T05:20:16;12.00;;;9.10;;
48897;SDS011;34713;50.038;20.000;2022-08-01T05:22:42;10.50;;;8.83;;
48897;SDS011;34713;50.038;20.000;2022-08-01T05:25:08;11.20;;;8.85;;
48897;SDS011;34713;50.038;20.000;2022-08-01T05:27:34;9.68;;;8.73;;
48897;SDS011;34713;50.038;20.000;2022-08-01T05:30:02;12.78;;;9.38;;
48897;SDS011;34713;50.038;20.000;2022-08-01T05:32:28;9.80;;;8.78;;
48897;SDS011;34713;50.038;20.000;2022-08-01T05:34:55;9.58;;;8.38;;
48897;SDS011;34713;50.038;20.000;2022-08-01T05:37:21;8.98;;;7.75;;
48897;SDS011;34713;50.038;20.000;2022-08-01T05:39:46;10.08;;;8.80;;
48897;SDS011;34713;50.038;20.000;2022-08-01T05:42:12;8.98;;;7.58;;
48897;SDS011;34713;50.038;20.000;2022-08-01T05:44:38;9.53;;;8.60;;
48897;SDS011;34713;50.038;20.000;2022-08-01T05:47:03;9.70;;;8.70;;
48897;SDS011;34713;50.038;20.000;2022-08-01T05:49:29;12.03;;;7.87;;
48897;SDS011;34713;50.038;20.000;2022-08-01T05:51:55;11.10;;;8.13;;
48897;SDS011;34713;50.038;20.000;2022-08-01T05:54:21;8.73;;;6.95;;
48897;SDS011;34713;50.038;20.000;2022-08-01T05:56:47;7.50;;;6.20;;
48897;SDS011;34713;50.038;20.000;2022-08-01T05:59:12;6.62;;;5.92;;
48897;SDS011;34713;50.038;20.000;2022-08-01T06:01:38;7.47;;;5.20;;
48897;SDS011;34713;50.038;20.000;2022-08-01T06:04:04;5.42;;;4.78;;
48897;SDS011;34713;50.038;20.000;2022-08-01T06:06:30;5.97;;;4.42;;
48897;SDS011;34713;50.038;20.000;2022-08-01T06:08:56;4.53;;;4.10;;
48897;SDS011;34713;50.038;20.000;2022-08-01T06:11:21;6.20;;;4.10;;
48897;SDS011;34713;50.038;20.000;2022-08-01T06:13:47;6.97;;;3.72;;
48897;SDS011;34713;50.038;20.000;2022-08-01T06:16:13;4.42;;;3.55;;
48897;SDS011;34713;50.038;20.000;2022-08-01T06:18:39;3.75;;;3.12;;
48897;SDS011;34713;50.038;20.000;2022-08-01T06:21:04;3.95;;;3.20;;
48897;SDS011;34713;50.038;20.000;2022-08-01T06:23:30;5.35;;;2.90;;
48897;SDS011;34713;50.038;20.000;2022-08-01T06:25:56;7.85;;;3.05;;
48897;SDS011;34713;50.038;20.000;2022-08-01T06:28:23;4.00;;;2.90;;
48897;SDS011;34713;50.038;20.000;2022-08-01T06:30:49;4.30;;;2.60;;
48897;SDS011;34713;50.038;20.000;2022-08-01T06:33:15;3.92;;;2.58;;
48897;SDS011;34713;50.038;20.000;2022-08-01T06:35:41;4.12;;;2.20;;
48897;SDS011;34713;50.038;20.000;2022-08-01T06:38:07;6.10;;;2.33;;
48897;SDS011;34713;50.038;20.000;2022-08-01T06:40:33;3.35;;;2.27;;
48897;SDS011;34713;50.038;20.000;2022-08-01T06:42:58;5.28;;;2.58;;
48897;SDS011;34713;50.038;20.000;2022-08-01T06:45:24;3.83;;;2.20;;
48897;SDS011;34713;50.038;20.000;2022-08-01T06:47:52;3.40;;;2.12;;
48897;SDS011;34713;50.038;20.000;2022-08-01T06:50:18;3.33;;;2.40;;
48897;SDS011;34713;50.038;20.000;2022-08-01T06:52:44;3.75;;;2.20;;
48897;SDS011;34713;50.038;20.000;2022-08-01T06:55:10;3.15;;;2.08;;
48897;SDS011;34713;50.038;20.000;2022-08-01T06:57:36;4.90;;;1.95;;
48897;SDS011;34713;50.038;20.000;2022-08-01T07:00:11;3.42;;;1.80;;
48897;SDS011;34713;50.038;20.000;2022-08-01T07:02:38;3.80;;;1.75;;
48897;SDS011;34713;50.038;20.000;2022-08-01T07:05:04;2.77;;;1.82;;
48897;SDS011;34713;50.038;20.000;2022-08-01T07:07:30;3.55;;;1.98;;
48897;SDS011;34713;50.038;20.000;2022-08-01T07:09:56;2.42;;;1.75;;
48897;SDS011;34713;50.038;20.000;2022-08-01T07:12:22;3.05;;;1.82;;
48897;SDS011;34713;50.038;20.000;2022-08-01T07:14:48;2.75;;;2.02;;
48897;SDS011;34713;50.038;20.000;2022-08-01T07:17:13;5.15;;;2.10;;
48897;SDS011;34713;50.038;20.000;2022-08-01T07:19:39;4.62;;;1.80;;
48897;SDS011;34713;50.038;20.000;2022-08-01T07:22:05;3.37;;;1.85;;
48897;SDS011;34713;50.038;20.000;2022-08-01T07:24:31;2.52;;;1.67;;
48897;SDS011;34713;50.038;20.000;2022-08-01T07:26:57;2.95;;;1.70;;
48897;SDS011;34713;50.038;20.000;2022-08-01T07:29:25;4.20;;;1.80;;
48897;SDS011;34713;50.038;20.000;2022-08-01T07:31:52;5.25;;;1.80;;
48897;SDS011;34713;50.038;20.000;2022-08-01T07:34:21;4.03;;;1.60;;
48897;SDS011;34713;50.038;20.000;2022-08-01T07:36:48;2.75;;;1.70;;
48897;SDS011;34713;50.038;20.000;2022-08-01T07:39:14;4.60;;;2.15;;
48897;SDS011;34713;50.038;20.000;2022-08-01T07:41:40;3.15;;;1.30;;
48897;SDS011;34713;50.038;20.000;2022-08-01T07:44:05;2.40;;;1.20;;
48897;SDS011;34713;50.038;20.000;2022-08-01T07:46:31;3.37;;;1.55;;
48897;SDS011;34713;50.038;20.000;2022-08-01T07:48:57;5.35;;;1.37;;
48897;SDS011;34713;50.038;20.000;2022-08-01T07:51:23;5.17;;;1.70;;
48897;SDS011;34713;50.038;20.000;2022-08-01T07:53:48;3.20;;;1.50;;
48897;SDS011;34713;50.038;20.000;2022-08-01T07:56:14;4.67;;;1.77;;
48897;SDS011;34713;50.038;20.000;2022-08-01T07:58:40;3.22;;;1.90;;
48897;SDS011;34713;50.038;20.000;2022-08-01T08:01:06;4.22;;;1.90;;
48897;SDS011;34713;50.038;20.000;2022-08-01T08:03:32;5.47;;;1.85;;
48897;SDS011;34713;50.038;20.000;2022-08-01T08:05:58;2.92;;;1.70;;
48897;SDS011;34713;50.038;20.000;2022-08-01T08:08:23;5.53;;;1.60;;
48897;SDS011;34713;50.038;20.000;2022-08-01T08:10:49;5.12;;;1.80;;
48897;SDS011;34713;50.038;20.000;2022-08-01T08:13:15;4.03;;;1.60;;
48897;SDS011;34713;50.038;20.000;2022-08-01T08:15:41;5.17;;;1.75;;
48897;SDS011;34713;50.038;20.000;2022-08-01T08:18:07;5.17;;;1.92;;
48897;SDS011;34713;50.038;20.000;2022-08-01T08:20:33;3.60;;;1.95;;
48897;SDS011;34713;50.038;20.000;2022-08-01T08:22:59;3.77;;;1.80;;
48897;SDS011;34713;50.038;20.000;2022-08-01T08:25:25;4.65;;;1.55;;
48897;SDS011;34713;50.038;20.000;2022-08-01T08:27:52;2.58;;;1.50;;
48897;SDS011;34713;50.038;20.000;2022-08-01T08:30:18;2.52;;;1.35;;
48897;SDS011;34713;50.038;20.000;2022-08-01T08:32:44;5.70;;;1.50;;
48897;SDS011;34713;50.038;20.000;2022-08-01T08:35:10;2.90;;;1.60;;
48897;SDS011;34713;50.038;20.000;2022-08-01T08:37:37;5.30;;;1.42;;
48897;SDS011;34713;50.038;20.000;2022-08-01T08:40:03;3.65;;;1.42;;
48897;SDS011;34713;50.038;20.000;2022-08-01T08:42:30;2.15;;;1.30;;
48897;SDS011;34713;50.038;20.000;2022-08-01T08:44:56;4.35;;;1.70;;
48897;SDS011;34713;50.038;20.000;2022-08-01T08:47:22;3.33;;;1.55;;
48897;SDS011;34713;50.038;20.000;2022-08-01T08:49:51;3.02;;;1.62;;
48897;SDS011;34713;50.038;20.000;2022-08-01T08:52:19;5.25;;;1.70;;
48897;SDS011;34713;50.038;20.000;2022-08-01T08:54:47;2.70;;;1.40;;
48897;SDS011;34713;50.038;20.000;2022-08-01T08:57:17;4.28;;;1.30;;
48897;SDS011;34713;50.038;20.000;2022-08-01T08:59:45;2.70;;;1.20;;
48897;SDS011;34713;50.038;20.000;2022-08-01T09:02:12;3.27;;;1.65;;
48897;SDS011;34713;50.038;20.000;2022-08-01T09:04:38;5.80;;;1.50;;
48897;SDS011;34713;50.038;20.000;2022-08-01T09:07:05;4.45;;;1.35;;
48897;SDS011;34713;50.038;20.000;2022-08-01T09:09:33;4.28;;;1.82;;
48897;SDS011;34713;50.038;20.000;2022-08-01T09:11:58;2.95;;;1.25;;
48897;SDS011;34713;50.038;20.000;2022-08-01T09:14:25;2.98;;;1.30;;
48897;SDS011;34713;50.038;20.000;2022-08-01T09:17:03;4.37;;;1.65;;
48897;SDS011;34713;50.038;20.000;2022-08-01T09:19:35;3.77;;;1.30;;
48897;SDS011;34713;50.038;20.000;2022-08-01T09:22:10;3.72;;;1.32;;
48897;SDS011;34713;50.038;20.000;2022-08-01T09:24:41;3.05;;;1.22;;
48897;SDS011;34713;50.038;20.000;2022-08-01T09:27:18;2.72;;;1.40;;
48897;SDS011;34713;50.038;20.000;2022-08-01T09:29:46;3.12;;;1.50;;
48897;SDS011;34713;50.038;20.000;2022-08-01T09:32:11;3.70;;;1.80;;
48897;SDS011;34713;50.038;20.000;2022-08-01T09:34:37;3.45;;;1.40;;
48897;SDS011;34713;50.038;20.000;2022-08-01T09:37:03;2.67;;;1.30;;
48897;SDS011;34713;50.038;20.000;2022-08-01T09:39:36;2.80;;;1.17;;
48897;SDS011;34713;50.038;20.000;2022-08-01T09:42:22;4.87;;;1.40;;
48897;SDS011;34713;50.038;20.000;2022-08-01T09:44:50;6.10;;;1.20;;
48897;SDS011;34713;50.038;20.000;2022-08-01T09:47:16;3.52;;;1.40;;
48897;SDS011;34713;50.038;20.000;2022-08-01T09:49:46;5.47;;;1.42;;
48897;SDS011;34713;50.038;20.000;2022-08-01T09:52:21;4.08;;;1.45;;
48897;SDS011;34713;50.038;20.000;2022-08-01T09:57:26;3.67;;;1.57;;
48897;SDS011;34713;50.038;20.000;2022-08-01T09:59:59;2.40;;;1.30;;
48897;SDS011;34713;50.038;20.000;2022-08-01T10:02:28;3.60;;;1.20;;
48897;SDS011;34713;50.038;20.000;2022-08-01T10:05:03;2.90;;;1.20;;
48897;SDS011;34713;50.038;20.000;2022-08-01T10:07:32;2.87;;;1.20;;
48897;SDS011;34713;50.038;20.000;2022-08-01T10:10:09;6.58;;;1.50;;
48897;SDS011;34713;50.038;20.000;2022-08-01T10:12:36;3.98;;;1.25;;
48897;SDS011;34713;50.038;20.000;2022-08-01T10:15:04;2.12;;;1.02;;
48897;SDS011;34713;50.038;20.000;2022-08-01T10:17:31;3.17;;;1.12;;
48897;SDS011;34713;50.038;20.000;2022-08-01T10:20:02;4.53;;;1.22;;
48897;SDS011;34713;50.038;20.000;2022-08-01T10:22:30;3.85;;;1.25;;
48897;SDS011;34713;50.038;20.000;2022-08-01T10:24:56;2.40;;;1.20;;
48897;SDS011;34713;50.038;20.000;2022-08-01T10:27:24;3.72;;;1.05;;
48897;SDS011;34713;50.038;20.000;2022-08-01T10:29:58;3.02;;;0.98;;
48897;SDS011;34713;50.038;20.000;2022-08-01T10:32:28;2.27;;;1.20;;
48897;SDS011;34713;50.038;20.000;2022-08-01T10:34:56;3.50;;;1.17;;
48897;SDS011;34713;50.038;20.000;2022-08-01T10:37:22;3.80;;;0.98;;
48897;SDS011;34713;50.038;20.000;2022-08-01T10:39:49;3.37;;;1.60;;
48897;SDS011;34713;50.038;20.000;2022-08-01T10:42:18;1.60;;;1.10;;
48897;SDS011;34713;50.038;20.000;2022-08-01T10:44:44;2.52;;;1.10;;
48897;SDS011;34713;50.038;20.000;2022-08-01T10:47:19;5.00;;;1.27;;
48897;SDS011;34713;50.038;20.000;2022-08-01T10:50:02;2.58;;;0.93;;
48897;SDS011;34713;50.038;20.000;2022-08-01T10:53:24;2.45;;;1.20;;
48897;SDS011;34713;50.038;20.000;2022-08-01T10:58:33;2.80;;;1.20;;
48897;SDS011;34713;50.038;20.000;2022-08-01T11:11:56;1.27;;;0.90;;
48897;SDS011;34713;50.038;20.000;2022-08-01T11:17:34;2.67;;;0.90;;
48897;SDS011;34713;50.038;20.000;2022-08-01T11:28:17;3.47;;;0.90;;
48897;SDS011;34713;50.038;20.000;2022-08-01T11:30:50;6.10;;;1.37;;
48897;SDS011;34713;50.038;20.000;2022-08-01T11:34:05;2.27;;;1.05;;
48897;SDS011;34713;50.038;20.000;2022-08-01T11:38:46;3.20;;;1.17;;
48897;SDS011;34713;50.038;20.000;2022-08-01T11:41:27;1.77;;;1.10;;
48897;SDS011;34713;50.038;20.000;2022-08-01T11:54:57;2.42;;;1.20;;
48897;SDS011;34713;50.038;20.000;2022-08-01T11:57:32;3.85;;;1.60;;
48897;SDS011;34713;50.038;20.000;2022-08-01T12:00:04;3.00;;;1.22;;
48897;SDS011;34713;50.038;20.000;2022-08-01T12:02:39;3.95;;;1.12;;
48897;SDS011;34713;50.038;20.000;2022-08-01T12:05:06;7.95;;;1.60;;
48897;SDS011;34713;50.038;20.000;2022-08-01T12:07:37;3.42;;;1.57;;
48897;SDS011;34713;50.038;20.000;2022-08-01T12:10:07;4.40;;;1.27;;
48897;SDS011;34713;50.038;20.000;2022-08-01T12:12:44;1.77;;;1.00;;
48897;SDS011;34713;50.038;20.000;2022-08-01T12:15:16;2.45;;;1.22;;
48897;SDS011;34713;50.038;20.000;2022-08-01T12:17:45;4.87;;;1.50;;
48897;SDS011;34713;50.038;20.000;2022-08-01T12:20:15;4.60;;;1.35;;
48897;SDS011;34713;50.038;20.000;2022-08-01T12:22:47;3.40;;;1.40;;
48897;SDS011;34713;50.038;20.000;2022-08-01T12:25:15;4.62;;;1.37;;
48897;SDS011;34713;50.038;20.000;2022-08-01T12:27:44;5.08;;;1.50;;
48897;SDS011;34713;50.038;20.000;2022-08-01T12:30:13;3.20;;;1.32;;
48897;SDS011;34713;50.038;20.000;2022-08-01T12:32:43;4.50;;;1.35;;
48897;SDS011;34713;50.038;20.000;2022-08-01T12:35:14;5.58;;;1.30;;
48897;SDS011;34713;50.038;20.000;2022-08-01T12:37:46;2.58;;;1.32;;
48897;SDS011;34713;50.038;20.000;2022-08-01T12:40:19;3.35;;;1.15;;
48897;SDS011;34713;50.038;20.000;2022-08-01T12:42:59;2.20;;;1.22;;
48897;SDS011;34713;50.038;20.000;2022-08-01T12:45:30;2.42;;;1.07;;
48897;SDS011;34713;50.038;20.000;2022-08-01T12:47:59;4.10;;;1.25;;
48897;SDS011;34713;50.038;20.000;2022-08-01T12:50:27;3.27;;;1.40;;
48897;SDS011;34713;50.038;20.000;2022-08-01T12:52:55;2.45;;;1.40;;
48897;SDS011;34713;50.038;20.000;2022-08-01T12:55:22;3.60;;;1.30;;
48897;SDS011;34713;50.038;20.000;2022-08-01T12:57:54;3.12;;;1.40;;
48897;SDS011;34713;50.038;20.000;2022-08-01T13:00:35;4.80;;;1.72;;
48897;SDS011;34713;50.038;20.000;2022-08-01T13:03:05;2.08;;;1.10;;
48897;SDS011;34713;50.038;20.000;2022-08-01T13:08:15;3.85;;;1.40;;
48897;SDS011;34713;50.038;20.000;2022-08-01T13:10:44;4.15;;;1.22;;
48897;SDS011;34713;50.038;20.000;2022-08-01T13:13:11;5.10;;;1.57;;
48897;SDS011;34713;50.038;20.000;2022-08-01T13:15:39;3.00;;;1.30;;
48897;SDS011;34713;50.038;20.000;2022-08-01T13:21:11;6.33;;;1.65;;
48897;SDS011;34713;50.038;20.000;2022-08-01T13:26:51;3.00;;;1.50;;
48897;SDS011;34713;50.038;20.000;2022-08-01T13:29:34;6.40;;;1.67;;
48897;SDS011;34713;50.038;20.000;2022-08-01T13:32:17;2.87;;;1.80;;
48897;SDS011;34713;50.038;20.000;2022-08-01T13:34:45;3.25;;;1.35;;
48897;SDS011;34713;50.038;20.000;2022-08-01T13:37:11;2.83;;;1.45;;
48897;SDS011;34713;50.038;20.000;2022-08-01T13:39:37;4.35;;;1.55;;
48897;SDS011;34713;50.038;20.000;2022-08-01T13:42:07;2.27;;;1.60;;
48897;SDS011;34713;50.038;20.000;2022-08-01T13:44:38;2.85;;;1.40;;
48897;SDS011;34713;50.038;20.000;2022-08-01T13:47:04;2.30;;;1.42;;
48897;SDS011;34713;50.038;20.000;2022-08-01T13:49:31;2.83;;;1.47;;
48897;SDS011;34713;50.038;20.000;2022-08-01T13:51:57;2.00;;;1.30;;
48897;SDS011;34713;50.038;20.000;2022-08-01T13:54:24;3.45;;;1.45;;
48897;SDS011;34713;50.038;20.000;2022-08-01T13:56:50;5.15;;;1.37;;
48897;SDS011;34713;50.038;20.000;2022-08-01T13:59:16;7.33;;;1.40;;
48897;SDS011;34713;50.038;20.000;2022-08-01T14:01:42;4.15;;;1.27;;
48897;SDS011;34713;50.038;20.000;2022-08-01T14:04:08;3.02;;;1.60;;
48897;SDS011;34713;50.038;20.000;2022-08-01T14:06:33;5.15;;;1.52;;
48897;SDS011;34713;50.038;20.000;2022-08-01T14:09:03;3.05;;;1.85;;
48897;SDS011;34713;50.038;20.000;2022-08-01T14:11:30;3.50;;;1.60;;
48897;SDS011;34713;50.038;20.000;2022-08-01T14:13:56;4.80;;;1.70;;
48897;SDS011;34713;50.038;20.000;2022-08-01T14:16:22;5.78;;;1.95;;
48897;SDS011;34713;50.038;20.000;2022-08-01T14:18:48;3.08;;;2.12;;
48897;SDS011;34713;50.038;20.000;2022-08-01T14:21:14;3.45;;;1.50;;
48897;SDS011;34713;50.038;20.000;2022-08-01T14:23:40;2.87;;;1.80;;
48897;SDS011;34713;50.038;20.000;2022-08-01T14:26:08;4.17;;;1.82;;
48897;SDS011;34713;50.038;20.000;2022-08-01T14:28:35;4.08;;;1.77;;
48897;SDS011;34713;50.038;20.000;2022-08-01T14:31:04;3.95;;;2.25;;
48897;SDS011;34713;50.038;20.000;2022-08-01T14:33:33;3.83;;;2.12;;
48897;SDS011;34713;50.038;20.000;2022-08-01T14:35:59;6.03;;;2.10;;
48897;SDS011;34713;50.038;20.000;2022-08-01T14:38:24;4.47;;;2.55;;
48897;SDS011;34713;50.038;20.000;2022-08-01T14:40:50;6.15;;;1.90;;
48897;SDS011;34713;50.038;20.000;2022-08-01T14:43:20;6.20;;;2.20;;
48897;SDS011;34713;50.038;20.000;2022-08-01T14:45:46;2.98;;;2.12;;
48897;SDS011;34713;50.038;20.000;2022-08-01T14:48:17;4.70;;;2.52;;
48897;SDS011;34713;50.038;20.000;2022-08-01T14:50:43;7.00;;;2.22;;
48897;SDS011;34713;50.038;20.000;2022-08-01T14:53:09;3.15;;;2.05;;
48897;SDS011;34713;50.038;20.000;2022-08-01T14:55:35;4.35;;;2.33;;
48897;SDS011;34713;50.038;20.000;2022-08-01T14:58:01;4.30;;;1.50;;
48897;SDS011;34713;50.038;20.000;2022-08-01T15:00:27;6.22;;;1.60;;
48897;SDS011;34713;50.038;20.000;2022-08-01T15:02:54;3.60;;;1.60;;
48897;SDS011;34713;50.038;20.000;2022-08-01T15:05:20;2.65;;;1.72;;
48897;SDS011;34713;50.038;20.000;2022-08-01T15:07:46;2.62;;;1.70;;
48897;SDS011;34713;50.038;20.000;2022-08-01T15:10:11;7.62;;;2.20;;
48897;SDS011;34713;50.038;20.000;2022-08-01T15:12:37;4.97;;;2.25;;
48897;SDS011;34713;50.038;20.000;2022-08-01T15:15:04;1.80;;;1.65;;
48897;SDS011;34713;50.038;20.000;2022-08-01T15:17:31;5.05;;;2.45;;
48897;SDS011;34713;50.038;20.000;2022-08-01T15:19:59;2.83;;;1.98;;
48897;SDS011;34713;50.038;20.000;2022-08-01T15:22:27;3.72;;;2.37;;
48897;SDS011;34713;50.038;20.000;2022-08-01T15:24:54;4.72;;;2.40;;
48897;SDS011;34713;50.038;20.000;2022-08-01T15:27:22;6.55;;;2.17;;
48897;SDS011;34713;50.038;20.000;2022-08-01T15:29:48;5.65;;;2.67;;
48897;SDS011;34713;50.038;20.000;2022-08-01T15:32:14;4.78;;;2.12;;
48897;SDS011;34713;50.038;20.000;2022-08-01T15:34:40;7.25;;;3.12;;
48897;SDS011;34713;50.038;20.000;2022-08-01T15:37:07;4.25;;;2.25;;
48897;SDS011;34713;50.038;20.000;2022-08-01T15:39:34;4.95;;;2.30;;
48897;SDS011;34713;50.038;20.000;2022-08-01T15:42:02;6.97;;;2.40;;
48897;SDS011;34713;50.038;20.000;2022-08-01T15:44:32;3.45;;;2.30;;
48897;SDS011;34713;50.038;20.000;2022-08-01T15:46:59;4.17;;;2.40;;